createdAt,value
2022-12-04T00:01:20.271Z,48.92
2022-12-04T00:03:47.438Z,53.55
2022-12-04T00:06:17.842Z,52.72
2022-12-04T00:08:45.985Z,57.70
2022-12-04T00:11:14.590Z,46.97
2022-12-04T00:13:41.631Z,51.90
2022-12-04T00:16:12.916Z,52.38
2022-12-04T00:18:39.880Z,56.03
2022-12-04T00:21:08.859Z,58.63
2022-12-04T00:23:36.557Z,54.90
2022-12-04T00:26:05.894Z,56.05
2022-12-04T00:28:33.020Z,57.95
2022-12-04T00:30:59.675Z,48.78
2022-12-04T00:33:26.432Z,53.83
2022-12-04T00:36:00.769Z,53.00
2022-12-04T00:38:28.068Z,52.03
2022-12-04T00:40:55.468Z,51.15
2022-12-04T00:43:23.142Z,53.60
2022-12-04T00:45:50.446Z,54.13
2022-12-04T00:48:17.090Z,54.90
2022-12-04T00:50:43.817Z,57.58
2022-12-04T00:53:12.193Z,44.33
2022-12-04T00:55:43.039Z,55.67
2022-12-04T00:58:10.638Z,57.97
2022-12-04T01:00:38.969Z,58.45
2022-12-04T01:03:06.838Z,56.67
2022-12-04T01:05:41.876Z,53.85
2022-12-04T01:08:09.627Z,54.85
2022-12-04T01:10:39.600Z,53.15
2022-12-04T01:13:06.388Z,60.45
2022-12-04T01:15:33.373Z,54.45
2022-12-04T01:18:00.185Z,54.80
2022-12-04T01:20:26.837Z,53.33
2022-12-04T01:22:53.606Z,56.80
2022-12-04T01:25:20.359Z,53.25
2022-12-04T01:27:46.991Z,62.97
2022-12-04T01:30:13.845Z,46.20
2022-12-04T01:32:40.596Z,52.47
2022-12-04T01:35:07.619Z,56.20
2022-12-04T01:37:34.238Z,56.85
2022-12-04T01:40:01.114Z,54.72
2022-12-04T01:42:28.140Z,55.53
2022-12-04T01:45:32.421Z,57.60
2022-12-04T01:48:06.479Z,52.20
2022-12-04T01:50:33.522Z,54.17
2022-12-04T01:53:00.422Z,43.45
2022-12-04T01:55:27.160Z,59.25
2022-12-04T01:57:53.816Z,55.95
2022-12-04T02:00:20.728Z,53.22
2022-12-04T02:02:48.263Z,57.05
2022-12-04T02:05:19.092Z,51.40
2022-12-04T02:07:50.781Z,55.75
2022-12-04T02:10:24.534Z,54.40
2022-12-04T02:13:16.004Z,53.05
2022-12-04T02:15:48.621Z,49.10
2022-12-04T02:18:35.564Z,54.75
2022-12-04T02:21:12.953Z,43.00
2022-12-04T02:24:16.659Z,48.83
2022-12-04T02:26:59.272Z,53.35
2022-12-04T02:29:38.416Z,55.55
2022-12-04T02:32:22.785Z,52.13
2022-12-04T02:34:55.318Z,61.22
2022-12-04T02:37:29.809Z,51.75
2022-12-04T02:40:05.084Z,58.50
2022-12-04T02:42:49.893Z,60.40
2022-12-04T02:45:22.947Z,62.42
2022-12-04T02:47:51.308Z,52.38
2022-12-04T02:50:22.131Z,55.72
2022-12-04T02:52:58.794Z,54.40
2022-12-04T02:55:48.449Z,62.13
2022-12-04T02:58:23.659Z,58.45
2022-12-04T03:00:52.103Z,59.13
2022-12-04T03:03:22.844Z,56.10
2022-12-04T03:06:11.672Z,54.42
2022-12-04T03:08:44.942Z,56.00
2022-12-04T03:11:11.571Z,51.20
2022-12-04T03:13:40.790Z,56.08
2022-12-04T03:16:19.326Z,57.15
2022-12-04T03:18:55.200Z,61.05
2022-12-04T03:21:27.019Z,52.30
2022-12-04T03:24:04.844Z,55.58
2022-12-04T03:26:40.100Z,56.15
2022-12-04T03:29:15.699Z,51.35
2022-12-04T03:32:01.130Z,48.97
2022-12-04T03:34:51.113Z,57.90
2022-12-04T03:37:26.866Z,56.03
2022-12-04T03:40:09.028Z,57.05
2022-12-04T03:42:45.948Z,57.45
2022-12-04T03:45:41.441Z,57.67
2022-12-04T03:48:37.508Z,53.92
2022-12-04T03:51:29.702Z,48.83
2022-12-04T03:54:03.605Z,50.85
2022-12-04T03:56:35.209Z,58.72
2022-12-04T03:59:13.588Z,47.33
2022-12-04T04:01:44.647Z,48.60
2022-12-04T04:04:17.969Z,41.78
2022-12-04T04:06:50.710Z,59.00
2022-12-04T04:09:22.622Z,54.17
2022-12-04T04:11:56.861Z,56.65
2022-12-04T04:14:51.993Z,53.30
2022-12-04T04:17:43.656Z,53.30
2022-12-04T04:20:42.958Z,58.10
2022-12-04T04:23:30.955Z,57.58
2022-12-04T04:26:00.806Z,45.42
2022-12-04T04:28:38.856Z,58.83
2022-12-04T04:31:26.169Z,50.00
2022-12-04T04:34:11.945Z,57.03
2022-12-04T04:36:47.559Z,58.63
2022-12-04T04:39:44.209Z,52.20
2022-12-04T04:42:21.578Z,51.22
2022-12-04T04:45:13.540Z,58.97
2022-12-04T04:47:54.288Z,58.70
2022-12-04T04:50:22.822Z,53.33
2022-12-04T04:52:53.657Z,52.00
2022-12-04T04:55:20.960Z,56.60
2022-12-04T04:57:48.023Z,49.17
2022-12-04T05:00:17.187Z,46.60
2022-12-04T05:02:43.970Z,54.67
2022-12-04T05:05:12.060Z,49.65
2022-12-04T05:07:38.823Z,49.38
2022-12-04T05:10:06.601Z,56.58
2022-12-04T05:12:33.339Z,54.40
2022-12-04T05:15:00.119Z,50.10
2022-12-04T05:17:26.738Z,52.40
2022-12-04T05:19:53.785Z,52.75
2022-12-04T05:22:42.021Z,57.38
2022-12-04T05:25:08.814Z,54.33
2022-12-04T05:27:35.442Z,51.83
2022-12-04T05:30:02.200Z,47.75
2022-12-04T05:32:29.908Z,39.63
2022-12-04T05:34:57.624Z,50.85
2022-12-04T05:37:25.428Z,51.47
2022-12-04T05:39:52.272Z,60.63
2022-12-04T05:42:19.068Z,56.85
2022-12-04T05:44:45.696Z,55.60
2022-12-04T05:47:12.361Z,56.97
2022-12-04T05:49:38.999Z,54.75
2022-12-04T05:52:06.314Z,51.63
2022-12-04T05:54:32.932Z,54.90
2022-12-04T05:56:59.903Z,50.40
2022-12-04T05:59:26.651Z,43.38
2022-12-04T06:01:53.422Z,50.38
2022-12-04T06:04:20.361Z,58.50
2022-12-04T06:06:47.123Z,57.08
2022-12-04T06:09:13.767Z,52.78
2022-12-04T06:11:41.875Z,48.53
2022-12-04T06:14:11.318Z,53.55
2022-12-04T06:16:41.300Z,50.95
2022-12-04T06:19:17.306Z,58.90
2022-12-04T06:21:47.851Z,43.45
2022-12-04T06:24:20.227Z,57.30
2022-12-04T06:27:18.789Z,50.33
2022-12-04T06:29:33.901Z,51.80
2022-12-04T06:32:00.687Z,56.17
2022-12-04T06:34:27.464Z,48.13
2022-12-04T06:36:54.059Z,35.15
2022-12-04T06:39:20.711Z,50.90
2022-12-04T06:41:47.697Z,53.92
2022-12-04T06:44:15.154Z,50.53
2022-12-04T06:46:46.526Z,51.33
2022-12-04T06:49:13.940Z,57.30
2022-12-04T06:51:40.900Z,48.22
2022-12-04T06:54:07.984Z,52.78
2022-12-04T06:56:35.136Z,51.20
2022-12-04T06:59:03.728Z,44.70
2022-12-04T07:01:33.138Z,53.47
2022-12-04T07:04:01.103Z,51.80
2022-12-04T07:06:33.409Z,49.35
2022-12-04T07:09:03.909Z,50.30
2022-12-04T07:11:31.142Z,48.42
2022-12-04T07:13:57.891Z,45.28
2022-12-04T07:16:26.041Z,52.88
2022-12-04T07:18:56.694Z,48.15
2022-12-04T07:21:26.543Z,46.67
2022-12-04T07:23:56.137Z,53.65
2022-12-04T07:26:23.536Z,47.03
2022-12-04T07:28:50.182Z,47.40
2022-12-04T07:31:20.371Z,51.40
2022-12-04T07:33:48.198Z,49.33
2022-12-04T07:36:18.079Z,49.60
2022-12-04T07:38:45.265Z,41.60
2022-12-04T07:41:13.115Z,46.03
2022-12-04T07:43:40.488Z,48.95
2022-12-04T07:46:10.296Z,55.60
2022-12-04T07:48:37.030Z,46.00
2022-12-04T07:51:09.406Z,50.47
2022-12-04T07:53:36.873Z,43.75
2022-12-04T07:56:05.289Z,49.67
2022-12-04T07:58:33.097Z,48.25
2022-12-04T08:01:15.535Z,49.78
2022-12-04T08:03:48.031Z,50.75
2022-12-04T08:06:15.857Z,48.25
2022-12-04T08:08:42.517Z,49.72
2022-12-04T08:11:13.239Z,48.78
2022-12-04T08:13:39.986Z,44.60
2022-12-04T08:16:08.855Z,49.38
2022-12-04T08:18:35.684Z,50.78
2022-12-04T08:21:11.735Z,49.00
2022-12-04T08:23:39.567Z,48.30
2022-12-04T08:26:07.261Z,48.83
2022-12-04T08:28:34.249Z,52.28
2022-12-04T08:31:05.799Z,49.53
2022-12-04T08:33:33.564Z,42.00
2022-12-04T08:36:00.506Z,46.28
2022-12-04T08:38:27.440Z,45.97
2022-12-04T08:40:54.097Z,45.38
2022-12-04T08:43:20.698Z,45.45
2022-12-04T08:46:02.207Z,51.42
2022-12-04T08:48:29.082Z,49.38
2022-12-04T08:50:56.334Z,51.40
2022-12-04T08:53:23.881Z,45.35
2022-12-04T08:55:51.041Z,47.10
2022-12-04T08:58:18.203Z,47.78
2022-12-04T09:00:45.001Z,48.33
2022-12-04T09:03:21.715Z,47.38
2022-12-04T09:05:50.379Z,42.45
2022-12-04T09:08:17.838Z,49.13
2022-12-04T09:10:44.836Z,50.10
2022-12-04T09:13:11.628Z,42.40
2022-12-04T09:15:41.645Z,49.05
2022-12-04T09:18:09.678Z,49.00
2022-12-04T09:20:37.025Z,52.92
2022-12-04T09:23:05.550Z,45.53
2022-12-04T09:25:36.462Z,48.22
2022-12-04T09:28:03.852Z,48.15
2022-12-04T09:30:30.509Z,44.83
2022-12-04T09:32:57.198Z,40.25
2022-12-04T09:35:24.053Z,47.33
2022-12-04T09:37:50.691Z,47.92
2022-12-04T09:40:38.348Z,49.30
2022-12-04T09:43:31.163Z,43.80
2022-12-04T09:46:07.967Z,47.17
2022-12-04T09:48:39.704Z,33.72
2022-12-04T09:51:16.512Z,34.28
2022-12-04T09:54:03.733Z,39.50
2022-12-04T09:56:32.018Z,44.17
2022-12-04T09:59:19.366Z,33.72
2022-12-04T10:02:03.026Z,40.92
2022-12-04T10:04:30.617Z,48.83
2022-12-04T10:07:21.744Z,44.28
2022-12-04T10:10:13.061Z,44.00
2022-12-04T10:12:51.613Z,45.13
2022-12-04T10:15:28.437Z,43.38
2022-12-04T10:18:15.108Z,41.03
2022-12-04T10:20:58.852Z,40.58
2022-12-04T10:23:55.984Z,44.08
2022-12-04T10:26:28.467Z,40.70
2022-12-04T10:29:08.222Z,44.45
2022-12-04T10:31:37.531Z,41.08
2022-12-04T10:34:16.365Z,38.10
2022-12-04T10:36:49.032Z,38.45
2022-12-04T10:39:26.351Z,42.67
2022-12-04T10:42:24.635Z,40.28
2022-12-04T10:44:52.010Z,34.10
2022-12-04T10:47:19.428Z,36.38
2022-12-04T10:49:46.110Z,37.35
2022-12-04T10:52:15.591Z,31.60
2022-12-04T10:54:49.538Z,31.92
2022-12-04T10:57:16.795Z,30.52
2022-12-04T10:59:52.459Z,28.88
2022-12-04T11:02:28.678Z,27.20
2022-12-04T11:05:22.124Z,31.98
2022-12-04T11:07:51.207Z,28.02
2022-12-04T11:10:32.613Z,32.22
2022-12-04T11:13:17.637Z,26.45
2022-12-04T11:15:47.415Z,22.80
2022-12-04T11:18:23.660Z,30.98
2022-12-04T11:21:07.308Z,32.58
2022-12-04T11:23:41.918Z,28.38
2022-12-04T11:28:42.031Z,32.25
2022-12-04T11:31:10.736Z,25.42
2022-12-04T11:33:47.594Z,30.70
2022-12-04T11:36:24.242Z,26.52
2022-12-04T11:38:53.855Z,27.15
2022-12-04T11:41:30.672Z,29.08
2022-12-04T11:44:00.467Z,26.92
2022-12-04T11:46:30.884Z,26.80
2022-12-04T11:48:57.731Z,28.55
2022-12-04T11:51:30.722Z,24.10
2022-12-04T11:54:31.551Z,21.02
2022-12-04T11:57:13.330Z,25.60
2022-12-04T12:00:00.745Z,26.65
2022-12-04T12:03:01.532Z,20.45
2022-12-04T12:05:55.178Z,21.17
2022-12-04T12:08:47.823Z,20.80
2022-12-04T12:11:35.790Z,24.98
2022-12-04T12:14:22.023Z,17.08
2022-12-04T12:17:16.006Z,16.65
2022-12-04T12:19:48.367Z,15.85
2022-12-04T12:22:44.760Z,27.08
2022-12-04T12:25:27.915Z,26.20
2022-12-04T12:28:16.419Z,21.50
2022-12-04T12:30:59.935Z,18.55
2022-12-04T12:33:39.516Z,22.25
2022-12-04T12:36:09.067Z,20.48
2022-12-04T12:38:41.787Z,23.98
2022-12-04T12:41:22.026Z,22.50
2022-12-04T12:44:07.283Z,23.27
2022-12-04T12:46:51.660Z,23.55
2022-12-04T12:49:23.754Z,21.40
2022-12-04T12:52:07.146Z,20.55
2022-12-04T12:54:39.842Z,15.95
2022-12-04T12:57:29.558Z,20.80
2022-12-04T13:00:06.232Z,20.95
2022-12-04T13:02:45.225Z,20.02
2022-12-04T13:05:16.398Z,22.52
2022-12-04T13:08:25.056Z,16.10
2022-12-04T13:11:14.539Z,22.08
2022-12-04T13:13:52.957Z,23.05
2022-12-04T13:16:23.049Z,21.02
2022-12-04T13:18:58.836Z,20.02
2022-12-04T13:21:40.177Z,12.30
2022-12-04T13:24:16.036Z,19.58
2022-12-04T13:27:09.042Z,19.50
2022-12-04T13:29:56.019Z,20.60
2022-12-04T13:32:49.553Z,15.30
2022-12-04T13:35:50.280Z,13.63
2022-12-04T13:38:47.519Z,20.17
2022-12-04T13:41:19.341Z,19.50
2022-12-04T13:43:51.109Z,17.95
2022-12-04T13:46:23.979Z,14.32
2022-12-04T13:48:50.740Z,18.80
2022-12-04T13:51:20.366Z,19.75
2022-12-04T13:53:47.023Z,18.83
2022-12-04T13:56:29.504Z,17.25
2022-12-04T13:59:04.898Z,19.88
2022-12-04T14:01:45.372Z,18.83
2022-12-04T14:04:28.250Z,16.85
2022-12-04T14:06:59.188Z,16.48
2022-12-04T14:09:29.068Z,18.20
2022-12-04T14:12:02.324Z,18.40
2022-12-04T14:14:41.278Z,18.10
2022-12-04T14:17:25.677Z,19.00
2022-12-04T14:19:55.556Z,17.58
2022-12-04T14:22:39.134Z,22.08
2022-12-04T14:25:23.497Z,23.75
2022-12-04T14:27:52.441Z,22.73
2022-12-04T14:30:25.809Z,15.77
2022-12-04T14:33:08.039Z,19.52
2022-12-04T14:35:35.260Z,22.73
2022-12-04T14:38:06.092Z,21.88
2022-12-04T14:40:46.990Z,25.55
2022-12-04T14:43:20.270Z,22.63
2022-12-04T14:45:58.912Z,23.38
2022-12-04T14:49:04.217Z,25.50
2022-12-04T14:51:37.381Z,12.27
2022-12-04T14:54:25.242Z,23.25
2022-12-04T14:57:04.630Z,22.55
2022-12-04T15:00:01.580Z,23.73
2022-12-04T15:02:38.577Z,26.35
2022-12-04T15:05:15.862Z,26.77
2022-12-04T15:07:49.820Z,25.05
2022-12-04T15:10:53.968Z,25.33
2022-12-04T15:13:35.471Z,26.50
2022-12-04T15:16:10.832Z,25.77
2022-12-04T15:18:39.698Z,27.83
2022-12-04T15:21:07.532Z,29.98
2022-12-04T15:23:34.472Z,34.90
2022-12-04T15:26:04.204Z,31.80
2022-12-04T15:28:35.265Z,30.58
2022-12-04T15:31:04.896Z,28.80
2022-12-04T15:33:36.303Z,29.17
2022-12-04T15:36:12.310Z,28.05
2022-12-04T15:38:40.406Z,34.08
2022-12-04T15:41:08.929Z,43.60
2022-12-04T15:43:43.722Z,32.50
2022-12-04T15:46:21.117Z,33.33
2022-12-04T15:48:48.229Z,34.72
2022-12-04T15:51:17.230Z,37.85
2022-12-04T15:53:46.114Z,37.15
2022-12-04T15:56:22.009Z,37.20
2022-12-04T15:59:02.348Z,35.63
2022-12-04T16:01:41.095Z,39.90
2022-12-04T16:04:22.864Z,30.88
2022-12-04T16:06:51.675Z,34.17
2022-12-04T16:09:25.250Z,31.58
2022-12-04T16:12:03.499Z,42.72
2022-12-04T16:14:30.135Z,41.83
2022-12-04T16:17:05.552Z,35.15
2022-12-04T16:19:39.104Z,37.55
2022-12-04T16:22:23.520Z,37.72
2022-12-04T16:24:51.190Z,35.22
2022-12-04T16:27:22.516Z,39.20
2022-12-04T16:29:50.047Z,39.58
2022-12-04T16:32:19.028Z,41.90
2022-12-04T16:34:46.372Z,39.38
2022-12-04T16:37:14.886Z,40.08
2022-12-04T16:39:41.827Z,37.08
2022-12-04T16:42:15.787Z,37.72
2022-12-04T16:44:42.369Z,40.22
2022-12-04T16:47:11.360Z,39.13
2022-12-04T16:49:38.572Z,37.58
2022-12-04T16:52:05.506Z,31.00
2022-12-04T16:54:32.370Z,37.33
2022-12-04T16:56:59.172Z,40.05
2022-12-04T16:59:25.922Z,38.72
2022-12-04T17:01:54.517Z,42.10
2022-12-04T17:04:21.685Z,37.28
2022-12-04T17:06:48.388Z,49.17
2022-12-04T17:09:15.799Z,36.95
2022-12-04T17:11:42.817Z,34.75
2022-12-04T17:14:10.553Z,35.60
2022-12-04T17:16:42.974Z,30.05
2022-12-04T17:19:11.221Z,43.47
2022-12-04T17:21:38.326Z,40.78
2022-12-04T17:24:05.899Z,40.33
2022-12-04T17:26:36.749Z,40.08
2022-12-04T17:29:03.853Z,31.45
2022-12-04T17:31:30.539Z,31.75
2022-12-04T17:33:57.737Z,40.50
2022-12-04T17:36:27.466Z,39.67
2022-12-04T17:38:56.221Z,36.65
2022-12-04T17:41:23.594Z,33.85
2022-12-04T17:43:50.262Z,38.92
2022-12-04T17:46:21.599Z,37.13
2022-12-04T17:48:49.047Z,23.27
2022-12-04T17:51:19.654Z,32.60
2022-12-04T17:53:46.872Z,29.50
2022-12-04T17:56:17.356Z,38.75
2022-12-04T17:58:44.763Z,32.13
2022-12-04T18:01:23.028Z,35.38
2022-12-04T18:03:52.272Z,34.03
2022-12-04T18:06:30.729Z,33.95
2022-12-04T18:08:57.918Z,33.30
2022-12-04T18:11:27.744Z,30.05
2022-12-04T18:14:01.283Z,32.75
2022-12-04T18:16:30.748Z,34.80
2022-12-04T18:18:58.744Z,36.38
2022-12-04T18:21:25.582Z,32.33
2022-12-04T18:23:55.712Z,31.60
2022-12-04T18:26:24.410Z,18.80
2022-12-04T18:28:51.718Z,30.85
2022-12-04T18:31:19.953Z,34.50
2022-12-04T18:33:47.185Z,28.85
2022-12-04T18:36:20.492Z,22.98
2022-12-04T18:38:52.611Z,29.50
2022-12-04T18:41:19.339Z,27.17
2022-12-04T18:43:46.141Z,32.05
2022-12-04T18:46:15.329Z,27.42
2022-12-04T18:48:43.552Z,32.95
2022-12-04T18:51:24.599Z,30.77
2022-12-04T18:53:53.300Z,30.20
2022-12-04T18:56:20.235Z,29.80
2022-12-04T18:58:47.176Z,21.33
2022-12-04T19:01:18.296Z,33.30
2022-12-04T19:03:46.270Z,27.25
2022-12-04T19:06:13.785Z,28.85
2022-12-04T19:08:43.301Z,27.00
2022-12-04T19:11:15.726Z,29.83
2022-12-04T19:13:42.980Z,25.92
2022-12-04T19:16:14.344Z,33.42
2022-12-04T19:18:42.433Z,34.83
2022-12-04T19:21:09.157Z,30.10
2022-12-04T19:23:35.855Z,26.27
2022-12-04T19:26:05.071Z,30.52
2022-12-04T19:28:31.781Z,28.02
2022-12-04T19:30:58.555Z,33.90
2022-12-04T19:33:25.763Z,33.85
2022-12-04T19:36:05.846Z,31.40
2022-12-04T19:38:33.490Z,31.98
2022-12-04T19:41:14.634Z,32.67
2022-12-04T19:43:44.422Z,29.67
2022-12-04T19:46:13.664Z,34.85
2022-12-04T19:48:40.711Z,36.35
2022-12-04T19:51:10.118Z,35.85
2022-12-04T19:53:41.093Z,34.90
2022-12-04T19:56:12.568Z,40.63
2022-12-04T19:58:39.455Z,36.78
2022-12-04T20:01:07.877Z,37.90
2022-12-04T20:03:35.154Z,37.95
2022-12-04T20:06:03.697Z,36.70
2022-12-04T20:08:30.500Z,37.13
2022-12-04T20:11:02.263Z,38.92
2022-12-04T20:13:29.236Z,35.47
2022-12-04T20:15:55.902Z,41.47
2022-12-04T20:18:22.586Z,39.13
2022-12-04T20:20:56.923Z,40.67
2022-12-04T20:23:24.103Z,41.97
2022-12-04T20:25:50.844Z,43.80
2022-12-04T20:28:18.196Z,39.53
2022-12-04T20:30:44.965Z,33.28
2022-12-04T20:33:11.775Z,34.92
2022-12-04T20:35:39.455Z,36.40
2022-12-04T20:38:07.088Z,40.83
2022-12-04T20:40:34.543Z,37.85
2022-12-04T20:43:03.933Z,33.22
2022-12-04T20:45:31.201Z,40.83
2022-12-04T20:47:57.866Z,39.67
2022-12-04T20:50:24.656Z,43.05
2022-12-04T20:52:51.946Z,37.88
2022-12-04T20:55:18.635Z,36.33
2022-12-04T20:57:45.241Z,38.13
2022-12-04T21:00:13.038Z,38.55
2022-12-04T21:02:39.862Z,39.78
2022-12-04T21:05:07.195Z,38.67
2022-12-04T21:07:34.250Z,36.92
2022-12-04T21:10:01.010Z,41.78
2022-12-04T21:12:46.230Z,38.40
2022-12-04T21:15:31.805Z,35.78
2022-12-04T21:18:00.969Z,39.25
2022-12-04T21:20:27.738Z,41.28
2022-12-04T21:22:54.412Z,43.78
2022-12-04T21:25:21.109Z,39.92
2022-12-04T21:27:47.727Z,41.40
2022-12-04T21:30:14.498Z,36.35
2022-12-04T21:32:41.168Z,41.42
2022-12-04T21:35:08.338Z,43.35
2022-12-04T21:37:35.124Z,41.30
2022-12-04T21:40:02.179Z,41.05
2022-12-04T21:42:34.710Z,40.42
2022-12-04T21:45:02.672Z,43.15
2022-12-04T21:47:30.179Z,39.35
2022-12-04T21:49:57.301Z,41.45
2022-12-04T21:52:24.632Z,44.85
2022-12-04T21:54:52.457Z,41.00
2022-12-04T21:57:20.072Z,40.97
2022-12-04T21:59:47.211Z,42.72
2022-12-04T22:02:15.248Z,41.35
2022-12-04T22:04:42.429Z,41.13
2022-12-04T22:07:09.254Z,43.63
2022-12-04T22:09:37.525Z,43.97
2022-12-04T22:12:26.461Z,42.53
2022-12-04T22:14:51.186Z,50.17
2022-12-04T22:17:17.981Z,37.55
2022-12-04T22:19:44.567Z,36.80
2022-12-04T22:22:11.332Z,39.28
2022-12-04T22:24:37.926Z,40.63
2022-12-04T22:27:04.490Z,39.35
2022-12-04T22:52:17.367Z,36.67
2022-12-04T22:54:44.633Z,35.28
2022-12-04T22:57:11.658Z,40.90
2022-12-04T22:59:38.434Z,42.55
2022-12-04T23:02:05.123Z,41.13
2022-12-04T23:04:31.925Z,29.55
2022-12-04T23:06:58.650Z,39.35
2022-12-04T23:09:26.162Z,42.00
2022-12-04T23:11:53.950Z,37.67
2022-12-04T23:14:21.226Z,33.72
2022-12-04T23:16:48.522Z,40.42
2022-12-04T23:19:18.757Z,33.60
2022-12-04T23:21:47.952Z,37.92
2022-12-04T23:24:17.582Z,37.10
2022-12-04T23:26:46.166Z,37.92
2022-12-04T23:29:37.019Z,41.28
2022-12-04T23:32:00.208Z,38.33
2022-12-04T23:34:27.100Z,40.58
2022-12-04T23:36:53.713Z,39.17
2022-12-04T23:39:20.350Z,44.03
2022-12-04T23:41:47.215Z,40.22
2022-12-04T23:44:13.828Z,48.55
2022-12-04T23:46:40.504Z,40.42
2022-12-04T23:49:07.336Z,42.92
2022-12-04T23:51:33.946Z,36.38
2022-12-04T23:54:00.643Z,38.20
2022-12-04T23:56:28.435Z,45.72
2022-12-04T23:58:57.487Z,40.40
